< < Back
Terminal Aerodrome Forecast


Current Version              Previous Versions:   1  2  3  4  5  6  7  8  9  

Terminal Aerodrome Forecast

234
FTUS42 KJAX 262300
TAFSSI
TAF
KSSI 262339Z 2700/2724 25004KT P6SM SKC
     FM270900 24006KT P6SM FEW045 WS010/26035KT
     FM271400 29013G23KT P6SM FEW030=



Latest METAR

337
SAUS70 KWBC 271300 RRA
MTRSSI
METAR KSSI 271253Z AUTO 28008KT 10SM CLR 09/04 A3023 RMK AO2 SLP237
T00890039


USA.gov is the U.S. government's official web portal to all federal, state and local government web resources and services.